Airfield :
LOGIN :

Register | Disclaimer

   EN    FR    IT 

 










Legend :    VFR   Marginal VFR   IFR   Intensive IFR   Very Intensive IFR
Visi :
Ceiling :
>= 8 km
>= 3000ft
5 to 8 km
1000 to 3000 ft
1500m to 5 km
500 to 1000 ft
800 to 1500m
200 to 500 ft
< 800m
< 200 ft
Symbols :   Thunderstorms  Fog  Heavy snow  Heavy precipitations  Wind > 20 kt
SIGMETs :     Misc.  Thunderstorms  Icing  Turbulence  Mountain Waves  Volcanic Ashes






- Airport Elevation : 1260 ft
- IATA code : LDE


LFBT - Tarbes / Ossun

CURRENT METAR :
  • 070730Z AUTO 26007KT 9999 BKN011 BKN020 BKN049 19/16 Q1028 BECMG SCT040

EXPIRED METARs :
  • 070700Z AUTO 25008KT 9999 SCT010 BKN020 BKN050 18/16 Q1028 TEMPO BKN008
  • 070630Z AUTO 25006KT 220V280 9999 BKN009 OVC020 18/16 Q1028 BECMG SCT040
  • 070600Z AUTO 25006KT 220V280 9999 SCT009 OVC017 17/15 Q1028 TEMPO BKN008
  • 070530Z AUTO 23005KT 200V290 9999 BKN008 OVC013 17/15 Q1027 NOSIG
  • 070500Z AUTO VRB03KT 9999 OVC009 16/15 Q1027 NOSIG
  • 070430Z AUTO 23004KT 180V270 9999 OVC009 16/15 Q1027 NOSIG

TAF TAF LFBT
Valid from the 07 at 06:00 until the 08 at 06:00 UTC


070500Z 0706/0806 25008KT 9999 SCT040
TEMPO 0706/0708 BKN008
BECMG 0802/0804 VRB03KT
PROB40
TEMPO 0804/0806 BKN006



MET'MAP, your aeronautical weather chart ! - Copyright ORBIFLY December 2007 - Disclaimer

ORBIFLY MET'MAP TEAM :

Programming & Development : Alexandra Zaïnal
Original concept : Baudouin d'Aumeries
Technical & hardware support : Manuel Goepfert
Assistance : Marc-Olivier Méhu




SOURCES & CREDITS :

   NOAA